Time;durP1;ratioP1;P1;durP2;ratioP2;P2;SDS_P1;SDS_P2;PMS_P1;PMS_P2;Temp;Humidity;BMP_temperature;BMP_pressure;BME280_temperature;BME280_humidity;BME280_pressure;Samples;Min_cycle;Max_cycle;Signal;HPM_P1;HPM_P2
2022/09/13 00:00:06;;;;;;;6.85;4.60;;;12.20;99.90;;;;;;5056521;28;20044;-77
2022/09/13 00:02:31;;;;;;;5.97;4.68;;;12.20;99.90;;;;;;5055334;28;20044;-77
2022/09/13 00:04:57;;;;;;;7.55;4.72;;;12.20;99.90;;;;;;5056398;28;20462;-77
2022/09/13 00:07:23;;;;;;;8.25;4.63;;;12.20;99.90;;;;;;5056274;28;20108;-77
2022/09/13 00:09:48;;;;;;;6.70;5.72;;;12.10;99.90;;;;;;5055057;28;20119;-77
2022/09/13 00:12:14;;;;;;;7.15;5.10;;;12.10;99.90;;;;;;5054786;28;20025;-77
2022/09/13 00:14:40;;;;;;;10.35;4.70;;;12.00;99.90;;;;;;5054779;28;20033;-76
2022/09/13 00:17:06;;;;;;;8.38;4.80;;;12.00;99.90;;;;;;5054520;28;20525;-77
2022/09/13 00:19:32;;;;;;;8.32;5.55;;;11.90;99.90;;;;;;5053645;28;20037;-77
2022/09/13 00:21:58;;;;;;;8.48;4.65;;;11.90;99.90;;;;;;5054459;28;20033;-77
2022/09/13 00:24:23;;;;;;;8.23;4.70;;;11.80;99.90;;;;;;5054614;28;20025;-77
2022/09/13 00:26:49;;;;;;;8.00;5.00;;;11.80;99.90;;;;;;5055813;28;20075;-77
2022/09/13 00:29:14;;;;;;;5.68;4.65;;;11.70;99.90;;;;;;5056072;28;20033;-77
2022/09/13 00:31:40;;;;;;;13.85;5.18;;;11.70;99.90;;;;;;5054511;28;20021;-77
2022/09/13 00:34:06;;;;;;;6.95;4.97;;;11.70;99.90;;;;;;5054678;28;20025;-77
2022/09/13 00:36:31;;;;;;;8.68;5.30;;;11.70;99.90;;;;;;5055766;28;20032;-77
2022/09/13 00:38:59;;;;;;;6.35;5.35;;;11.60;99.90;;;;;;5055925;28;20025;-77
2022/09/13 00:41:25;;;;;;;6.43;5.15;;;11.60;99.90;;;;;;5055634;28;20040;-77
2022/09/13 00:43:54;;;;;;;8.60;5.68;;;11.60;99.90;;;;;;5054350;28;20028;-77
2022/09/13 00:46:34;;;;;;;7.20;5.05;;;11.50;99.90;;;;;;5054349;28;20035;-77
2022/09/13 00:49:10;;;;;;;12.45;6.57;;;11.50;99.90;;;;;;5055521;28;20040;-77
2022/09/13 00:51:36;;;;;;;7.85;5.03;;;11.50;99.90;;;;;;5054389;28;20452;-77
2022/09/13 00:54:03;;;;;;;7.78;5.60;;;11.50;99.90;;;;;;5054743;28;20066;-77
2022/09/13 00:56:35;;;;;;;8.27;5.68;;;11.50;99.90;;;;;;5054057;28;20032;-76
2022/09/13 00:59:09;;;;;;;7.07;5.38;;;11.50;99.90;;;;;;5053984;28;20024;-77
2022/09/13 01:01:42;;;;;;;8.05;5.40;;;11.50;99.90;;;;;;5055480;28;20048;-77
2022/09/13 01:04:08;;;;;;;5.30;4.80;;;11.50;99.90;;;;;;5054761;28;20507;-77
2022/09/13 01:06:36;;;;;;;8.63;5.60;;;11.40;99.90;;;;;;5053932;28;20025;-77
2022/09/13 01:09:04;;;;;;;9.40;5.18;;;11.30;99.90;;;;;;5055111;28;20035;-77
2022/09/13 01:11:54;;;;;;;7.13;4.80;;;11.30;99.90;;;;;;5055077;28;20464;-77
2022/09/13 01:14:22;;;;;;;11.23;5.30;;;11.30;99.90;;;;;;5055150;28;20032;-77
2022/09/13 01:16:48;;;;;;;7.47;4.43;;;11.20;99.90;;;;;;5053765;28;20036;-77
2022/09/13 01:19:14;;;;;;;5.32;4.70;;;11.20;99.90;;;;;;5054876;28;20565;-77
2022/09/13 01:22:14;;;;;;;6.72;5.18;;;11.10;99.90;;;;;;5054608;28;20120;-77
2022/09/13 01:24:46;;;;;;;7.70;5.03;;;11.10;99.90;;;;;;5053721;28;20078;-77
2022/09/13 01:27:14;;;;;;;6.32;4.70;;;11.10;99.90;;;;;;5053620;28;20021;-77
2022/09/13 01:29:40;;;;;;;11.32;5.03;;;11.10;99.90;;;;;;5053473;28;20362;-77
2022/09/13 01:32:19;;;;;;;7.28;5.57;;;11.10;99.90;;;;;;5053329;28;20032;-77
2022/09/13 01:34:45;;;;;;;11.20;4.55;;;11.10;99.90;;;;;;5054408;28;20527;-77
2022/09/13 01:37:40;;;;;;;8.13;4.75;;;11.00;99.90;;;;;;5054565;28;20033;-77
2022/09/13 01:40:06;;;;;;;6.05;4.50;;;11.00;99.90;;;;;;5053197;28;20033;-77
2022/09/13 01:42:53;;;;;;;5.50;4.60;;;11.00;99.90;;;;;;5052952;28;20051;-77
2022/09/13 01:45:26;;;;;;;5.93;4.63;;;11.00;99.90;;;;;;5052919;28;20029;-77
2022/09/13 01:48:04;;;;;;;8.63;4.80;;;10.90;99.90;;;;;;5054354;28;20028;-77
2022/09/13 01:50:49;;;;;;;7.20;5.20;;;11.00;99.90;;;;;;5053431;28;20032;-77
2022/09/13 01:53:35;;;;;;;12.32;5.03;;;11.00;99.90;;;;;;5053910;28;20028;-77
2022/09/13 01:56:11;;;;;;;5.75;4.45;;;11.00;99.90;;;;;;5053158;28;20476;-77
2022/09/13 01:58:54;;;;;;;4.88;4.10;;;10.90;99.90;;;;;;5054285;28;20025;-77
2022/09/13 02:02:08;;;;;;;4.88;4.38;;;10.80;99.90;;;;;;5052764;28;20037;-77
2022/09/13 02:04:40;;;;;;;5.05;4.43;;;10.80;99.90;;;;;;5029510;28;20086;-77
2022/09/13 02:07:18;;;;;;;6.13;4.88;;;10.80;99.90;;;;;;5053181;28;20427;-77
2022/09/13 02:09:49;;;;;;;7.10;4.25;;;10.70;99.90;;;;;;5053339;28;20033;-77
2022/09/13 02:12:24;;;;;;;9.32;4.63;;;10.70;99.90;;;;;;5053965;28;20025;-77
2022/09/13 02:15:15;;;;;;;5.38;4.50;;;10.70;99.90;;;;;;5052645;28;20396;-76
2022/09/13 02:17:48;;;;;;;5.93;4.32;;;10.60;99.90;;;;;;5054016;28;20028;-77
2022/09/13 02:20:32;;;;;;;7.95;4.68;;;10.60;99.90;;;;;;5052650;28;20111;-77
2022/09/13 02:23:03;;;;;;;5.00;4.20;;;10.50;99.90;;;;;;5054529;28;20029;-77
2022/09/13 02:25:32;;;;;;;5.35;4.53;;;10.50;99.90;;;;;;5053259;28;20048;-77
2022/09/13 02:28:01;;;;;;;9.32;5.45;;;10.50;99.90;;;;;;5054411;28;20025;-77
2022/09/13 02:30:33;;;;;;;5.40;4.68;;;10.50;99.90;;;;;;5054054;28;20028;-77
2022/09/13 02:33:05;;;;;;;7.07;5.10;;;10.50;99.90;;;;;;5053264;28;20040;-77
2022/09/13 02:35:55;;;;;;;7.38;4.20;;;10.50;99.90;;;;;;5055681;28;20021;-77
2022/09/13 02:38:32;;;;;;;6.00;4.63;;;10.50;99.90;;;;;;5055266;28;20029;-77
2022/09/13 02:41:25;;;;;;;5.30;4.45;;;10.50;99.90;;;;;;5056134;28;20446;-78
2022/09/13 02:43:58;;;;;;;9.02;4.63;;;10.40;99.90;;;;;;5060188;28;20029;-78
2022/09/13 02:46:32;;;;;;;11.00;4.65;;;10.40;99.90;;;;;;5059336;28;20025;-77
2022/09/13 02:49:23;;;;;;;6.43;4.20;;;10.40;99.90;;;;;;5059709;28;20025;-77
2022/09/13 02:52:08;;;;;;;9.90;4.50;;;10.40;99.90;;;;;;5059390;28;20029;-77
2022/09/13 02:54:55;;;;;;;5.35;4.30;;;10.40;99.90;;;;;;5058238;28;20025;-77
2022/09/13 02:57:37;;;;;;;7.25;4.32;;;10.40;99.90;;;;;;5057666;28;20040;-77
2022/09/13 03:00:04;;;;;;;4.85;4.35;;;10.40;99.90;;;;;;5057595;28;20029;-77
2022/09/13 03:02:33;;;;;;;6.65;4.82;;;10.40;99.90;;;;;;5058818;28;20168;-77
2022/09/13 03:04:59;;;;;;;;;;;10.30;99.90;;;;;;5057750;28;20136;-77
2022/09/13 03:07:25;;;;;;;7.82;3.92;;;10.30;99.90;;;;;;5057689;28;19947;-77
2022/09/13 03:10:05;;;;;;;5.30;4.63;;;10.30;99.90;;;;;;5057698;28;20052;-77
2022/09/13 03:12:40;;;;;;;9.52;5.00;;;10.30;99.90;;;;;;5057011;28;20025;-77
2022/09/13 03:15:28;;;;;;;11.45;5.07;;;10.20;99.90;;;;;;5056767;28;20544;-77
2022/09/13 03:18:28;;;;;;;9.32;5.13;;;10.20;99.90;;;;;;5056979;28;20028;-77
2022/09/13 03:21:31;;;;;;;8.93;4.53;;;10.20;99.90;;;;;;5059088;28;20037;-77
2022/09/13 03:24:27;;;;;;;9.57;4.18;;;10.20;99.90;;;;;;5059086;28;20025;-77
2022/09/13 03:26:56;;;;;;;9.85;4.78;;;10.10;99.90;;;;;;5058929;28;20524;-77
2022/09/13 03:29:30;;;;;;;9.57;4.45;;;10.10;99.90;;;;;;5057649;28;20029;-77
2022/09/13 03:32:11;;;;;;;6.22;4.75;;;10.10;99.90;;;;;;5058647;28;20025;-77
2022/09/13 03:35:02;;;;;;;10.75;4.55;;;10.00;99.90;;;;;;5057628;28;20061;-77
2022/09/13 03:37:47;;;;;;;7.43;4.50;;;10.00;99.90;;;;;;5057050;28;20032;-77
2022/09/13 03:40:20;;;;;;;6.32;4.60;;;10.00;99.90;;;;;;5058861;28;20029;-77
2022/09/13 03:43:07;;;;;;;8.20;4.68;;;10.00;99.90;;;;;;5057799;28;20464;-77
2022/09/13 03:45:40;;;;;;;9.55;5.07;;;10.00;99.90;;;;;;5057749;28;20063;-77
2022/09/13 03:48:08;;;;;;;7.55;4.80;;;9.90;99.90;;;;;;5058693;28;20108;-77
2022/09/13 03:50:35;;;;;;;7.97;5.33;;;9.90;99.90;;;;;;5058355;28;20064;-77
2022/09/13 03:53:06;;;;;;;7.00;4.30;;;9.90;99.90;;;;;;5057648;28;20032;-77
2022/09/13 03:55:33;;;;;;;8.55;4.53;;;9.90;99.90;;;;;;5057237;28;20427;-77
2022/09/13 03:58:00;;;;;;;8.95;5.07;;;9.80;99.90;;;;;;5057672;28;20021;-77
2022/09/13 04:00:26;;;;;;;9.05;4.55;;;9.80;99.90;;;;;;5057740;28;20110;-77
2022/09/13 04:02:51;;;;;;;8.80;4.95;;;9.80;99.90;;;;;;5057178;28;20029;-77
2022/09/13 04:05:17;;;;;;;5.95;4.60;;;9.80;99.90;;;;;;5057469;28;20028;-77
2022/09/13 04:07:42;;;;;;;7.30;4.45;;;9.70;99.90;;;;;;5057739;28;20036;-77
2022/09/13 04:10:09;;;;;;;10.35;5.20;;;9.70;99.90;;;;;;5058191;28;20061;-77
2022/09/13 04:12:35;;;;;;;5.93;4.88;;;9.70;99.90;;;;;;5058254;28;20028;-76
2022/09/13 04:15:00;;;;;;;7.63;4.90;;;9.70;99.90;;;;;;5059267;28;20052;-76
2022/09/13 04:17:26;;;;;;;8.13;4.88;;;9.70;99.90;;;;;;5058235;28;20028;-76
2022/09/13 04:19:52;;;;;;;7.80;4.55;;;9.60;99.90;;;;;;5058284;28;20053;-76
2022/09/13 04:22:17;;;;;;;11.27;5.57;;;9.60;99.90;;;;;;5058167;28;20456;-77
2022/09/13 04:24:43;;;;;;;9.18;5.13;;;9.60;99.90;;;;;;5058719;28;20108;-77
2022/09/13 04:27:09;;;;;;;14.45;5.32;;;9.50;99.90;;;;;;5057488;28;20036;-77
2022/09/13 04:29:35;;;;;;;8.18;5.30;;;9.50;99.90;;;;;;5057030;28;20104;-76
2022/09/13 04:32:01;;;;;;;7.35;5.07;;;9.50;99.90;;;;;;5058526;28;20029;-75
2022/09/13 04:34:26;;;;;;;12.15;6.00;;;9.50;99.90;;;;;;5057371;28;20025;-75
2022/09/13 04:36:52;;;;;;;8.80;5.57;;;9.50;99.90;;;;;;5057438;28;20025;-76
2022/09/13 04:39:19;;;;;;;7.88;5.57;;;9.40;99.90;;;;;;5057793;28;20025;-74
2022/09/13 04:41:47;;;;;;;7.78;5.40;;;9.40;99.90;;;;;;5057214;28;20061;-75
2022/09/13 04:44:16;;;;;;;14.23;7.30;;;9.40;99.90;;;;;;5056736;28;20413;-74
2022/09/13 04:46:42;;;;;;;9.98;5.45;;;9.40;99.90;;;;;;5056758;28;20582;-74
2022/09/13 04:49:11;;;;;;;7.78;5.60;;;9.40;99.90;;;;;;5058760;28;20028;-73
2022/09/13 04:51:36;;;;;;;13.38;6.07;;;9.40;99.90;;;;;;5059914;28;20365;-75
2022/09/13 04:54:02;;;;;;;8.68;5.38;;;9.40;99.90;;;;;;5057440;28;20036;-74
2022/09/13 04:56:27;;;;;;;9.95;5.65;;;9.40;99.90;;;;;;5058297;28;20131;-74
2022/09/13 04:58:54;;;;;;;9.05;5.93;;;9.40;99.90;;;;;;5058954;28;20025;-74
2022/09/13 05:01:21;;;;;;;10.93;6.20;;;9.40;99.90;;;;;;5057804;28;20481;-73
2022/09/13 05:03:49;;;;;;;10.93;6.55;;;9.50;99.90;;;;;;5057658;28;20045;-72
2022/09/13 05:06:18;;;;;;;10.20;5.68;;;9.50;99.90;;;;;;5056675;28;20384;-73
2022/09/13 05:08:48;;;;;;;9.38;5.25;;;9.50;99.90;;;;;;5057765;28;20021;-73
2022/09/13 05:11:14;;;;;;;7.38;5.65;;;9.50;99.90;;;;;;5058626;28;20036;-73
2022/09/13 05:13:39;;;;;;;10.38;5.85;;;9.60;99.90;;;;;;5056693;28;20420;-73
2022/09/13 05:16:06;;;;;;;10.75;5.78;;;9.60;99.90;;;;;;5056543;28;20488;-73
2022/09/13 05:18:34;;;;;;;9.90;6.15;;;9.60;99.90;;;;;;5056558;28;20029;-74
2022/09/13 05:21:01;;;;;;;9.75;5.70;;;9.70;99.90;;;;;;5055327;28;20175;-74
2022/09/13 05:23:28;;;;;;;12.30;5.63;;;9.60;99.90;;;;;;5055592;28;20029;-74
2022/09/13 05:25:56;;;;;;;7.03;5.05;;;9.70;99.90;;;;;;5055280;28;20036;-74
2022/09/13 05:28:22;;;;;;;9.55;5.18;;;9.80;99.90;;;;;;5056795;28;20044;-74
2022/09/13 05:31:27;;;;;;;6.57;5.25;;;9.80;99.90;;;;;;5055255;28;20033;-74
2022/09/13 05:34:14;;;;;;;10.80;6.30;;;9.90;99.90;;;;;;5041874;28;20040;-74
2022/09/13 05:36:40;;;;;;;12.18;5.22;;;10.20;99.90;;;;;;5054988;28;20021;-74
2022/09/13 05:39:11;;;;;;;5.13;4.07;;;10.50;99.90;;;;;;5053155;28;20029;-75
2022/09/13 05:41:36;;;;;;;6.45;3.67;;;10.70;99.90;;;;;;5052847;28;20045;-74
2022/09/13 05:44:02;;;;;;;7.43;3.70;;;11.00;99.90;;;;;;5052967;28;20029;-74
2022/09/13 05:46:28;;;;;;;4.55;3.30;;;11.30;99.90;;;;;;5052917;28;20108;-74
2022/09/13 05:48:58;;;;;;;4.78;3.40;;;11.60;99.90;;;;;;5052904;28;20116;-74
2022/09/13 05:51:24;;;;;;;5.28;2.95;;;11.90;99.90;;;;;;5054163;28;20033;-74
2022/09/13 05:53:52;;;;;;;5.13;2.65;;;12.20;99.90;;;;;;5054375;28;20037;-74
2022/09/13 05:56:20;;;;;;;4.50;3.30;;;12.40;99.90;;;;;;5053972;28;20052;-74
2022/09/13 05:58:47;;;;;;;3.45;3.15;;;12.70;99.90;;;;;;5053308;28;20028;-74
2022/09/13 06:01:15;;;;;;;3.70;2.70;;;13.00;99.90;;;;;;5053794;28;20087;-75
2022/09/13 06:03:41;;;;;;;3.05;2.60;;;13.40;99.90;;;;;;5053834;28;20041;-74
2022/09/13 06:06:07;;;;;;;7.05;2.78;;;13.70;99.90;;;;;;5053837;28;20036;-74
2022/09/13 06:08:34;;;;;;;2.92;2.28;;;14.00;99.90;;;;;;5052585;28;20029;-74
2022/09/13 06:11:05;;;;;;;4.93;2.40;;;14.20;99.90;;;;;;5053985;28;20029;-75
2022/09/13 06:13:31;;;;;;;4.20;2.30;;;14.40;99.90;;;;;;5053616;28;20476;-74
2022/09/13 06:15:58;;;;;;;3.03;2.65;;;14.60;99.90;;;;;;5054177;28;20373;-74
2022/09/13 06:18:25;;;;;;;5.25;2.47;;;14.90;99.90;;;;;;5053101;28;20021;-74
2022/09/13 06:20:57;;;;;;;3.83;2.60;;;15.30;99.90;;;;;;5053667;28;20037;-75
2022/09/13 06:23:22;;;;;;;2.65;2.45;;;15.50;99.90;;;;;;5053799;28;20021;-75
2022/09/13 06:25:48;;;;;;;5.90;2.65;;;15.70;99.90;;;;;;5053463;28;20354;-75
2022/09/13 06:28:14;;;;;;;5.82;2.65;;;15.90;99.90;;;;;;5054017;28;20025;-74
2022/09/13 06:30:39;;;;;;;3.33;2.40;;;16.30;99.90;;;;;;5052826;28;20087;-75
2022/09/13 06:33:05;;;;;;;5.40;2.60;;;16.50;99.90;;;;;;5052437;28;20453;-74
2022/09/13 06:35:31;;;;;;;2.72;2.33;;;16.80;99.90;;;;;;5053865;28;20096;-74
2022/09/13 06:37:57;;;;;;;4.85;2.55;;;17.20;99.90;;;;;;5053590;28;20427;-74
2022/09/13 06:40:24;;;;;;;3.70;2.70;;;17.60;99.90;;;;;;5052212;28;20090;-74
2022/09/13 06:42:50;;;;;;;6.80;2.83;;;18.00;99.90;;;;;;5053692;28;20025;-74
2022/09/13 06:45:15;;;;;;;6.25;2.45;;;18.40;99.90;;;;;;5053657;28;20458;-74
2022/09/13 06:47:41;;;;;;;4.70;2.90;;;18.60;99.90;;;;;;5053567;28;20028;-75
2022/09/13 06:50:08;;;;;;;5.55;2.75;;;18.70;99.90;;;;;;5053530;28;20450;-75
2022/09/13 06:52:34;;;;;;;2.60;2.40;;;18.90;99.90;;;;;;5052201;28;20444;-75
2022/09/13 06:54:59;;;;;;;6.65;2.92;;;19.00;99.90;;;;;;5053742;28;20032;-74
2022/09/13 06:57:25;;;;;;;5.78;2.60;;;19.10;99.90;;;;;;5052009;28;20116;-75
2022/09/13 06:59:51;;;;;;;6.35;3.00;;;19.20;99.90;;;;;;5053325;28;20033;-74
2022/09/13 07:02:16;;;;;;;7.25;3.05;;;19.30;99.90;;;;;;5053779;28;20155;-74
2022/09/13 07:04:42;;;;;;;4.82;3.03;;;19.40;99.90;;;;;;5052166;28;20052;-74
2022/09/13 07:07:07;;;;;;;6.22;3.08;;;19.40;99.90;;;;;;5053391;28;20350;-71
2022/09/13 07:09:33;;;;;;;5.97;3.13;;;19.50;99.90;;;;;;5052219;28;20469;-71
2022/09/13 07:12:00;;;;;;;7.72;3.45;;;19.60;99.90;;;;;;5053457;28;20049;-72
2022/09/13 07:14:27;;;;;;;8.20;3.75;;;19.50;99.90;;;;;;5052133;28;20025;-72
2022/09/13 07:16:54;;;;;;;9.77;3.60;;;19.80;99.90;;;;;;5053353;28;20025;-72
2022/09/13 07:19:22;;;;;;;5.15;3.40;;;19.90;99.90;;;;;;5053094;28;20028;-72
2022/09/13 07:21:48;;;;;;;11.10;3.90;;;20.20;99.90;;;;;;5052976;28;20033;-72
2022/09/13 07:24:18;;;;;;;5.97;3.10;;;20.30;99.90;;;;;;5053152;28;20025;-72
2022/09/13 07:26:45;;;;;;;6.47;3.28;;;20.50;99.90;;;;;;5056865;28;20051;-72
2022/09/13 07:29:17;;;;;;;6.05;3.63;;;20.30;99.90;;;;;;5063077;28;20044;-72
2022/09/13 07:31:46;;;;;;;7.57;3.40;;;20.50;99.90;;;;;;5062523;28;20020;-74
2022/09/13 07:34:22;;;;;;;3.72;3.38;;;20.40;99.90;;;;;;5063145;28;20461;-75
2022/09/13 07:36:48;;;;;;;7.15;3.33;;;20.80;99.90;;;;;;5058220;28;20036;-72
2022/09/13 07:39:14;;;;;;;4.82;3.60;;;21.30;99.90;;;;;;5057262;28;20032;-72
2022/09/13 07:41:40;;;;;;;5.75;2.97;;;21.70;99.30;;;;;;5056301;28;20127;-74
2022/09/13 07:44:08;;;;;;;5.60;3.38;;;22.00;99.00;;;;;;5057102;28;20064;-75
2022/09/13 07:46:38;;;;;;;5.93;3.10;;;22.20;98.30;;;;;;5056952;28;20028;-76
2022/09/13 07:49:05;;;;;;;5.55;3.33;;;22.50;96.80;;;;;;5056776;28;20025;-75
2022/09/13 07:51:33;;;;;;;4.10;3.00;;;22.60;96.00;;;;;;5056109;28;20040;-75
2022/09/13 07:54:01;;;;;;;4.00;2.77;;;23.00;95.90;;;;;;5055098;28;20025;-75
2022/09/13 07:56:29;;;;;;;8.13;2.63;;;23.30;94.70;;;;;;5056426;28;20033;-75
2022/09/13 07:58:55;;;;;;;5.57;3.15;;;23.50;93.00;;;;;;5055069;28;20457;-75
2022/09/13 08:01:23;;;;;;;4.90;3.10;;;23.30;92.50;;;;;;5054736;28;20033;-73
2022/09/13 08:04:09;;;;;;;3.83;2.83;;;23.10;92.00;;;;;;5055904;28;20053;-75
2022/09/13 08:06:36;;;;;;;6.13;2.47;;;23.50;91.80;;;;;;5056516;28;20033;-73
2022/09/13 08:09:04;;;;;;;4.38;3.10;;;23.60;90.70;;;;;;5056037;28;20025;-73
2022/09/13 08:11:34;;;;;;;3.03;2.10;;;24.00;90.10;;;;;;5056349;28;20056;-73
2022/09/13 08:14:01;;;;;;;2.53;2.20;;;24.30;87.60;;;;;;5056087;28;20098;-73
2022/09/13 08:16:27;;;;;;;4.55;2.63;;;24.30;84.40;;;;;;5054585;28;20056;-73
2022/09/13 08:18:58;;;;;;;3.70;2.03;;;24.30;83.40;;;;;;5056067;28;20029;-72
2022/09/13 08:21:24;;;;;;;3.20;2.40;;;23.80;83.90;;;;;;5054314;28;20040;-73
2022/09/13 08:23:59;;;;;;;3.10;2.05;;;23.30;84.70;;;;;;5055857;28;20357;-72
2022/09/13 08:26:28;;;;;;;2.00;1.88;;;23.40;85.20;;;;;;5055874;28;20032;-72
2022/09/13 08:28:59;;;;;;;2.83;1.80;;;23.70;84.00;;;;;;5055503;28;20020;-72
2022/09/13 08:31:25;;;;;;;4.28;2.00;;;23.80;84.00;;;;;;5054728;28;20495;-73
2022/09/13 08:33:52;;;;;;;4.25;2.10;;;24.10;84.20;;;;;;5054474;28;20025;-73
2022/09/13 08:36:18;;;;;;;6.10;3.10;;;24.20;80.90;;;;;;5055658;28;20052;-73
2022/09/13 08:38:53;;;;;;;2.70;2.22;;;24.50;82.20;;;;;;5054353;28;20656;-73
2022/09/13 08:41:40;;;;;;;2.28;2.10;;;25.00;80.20;;;;;;5054801;28;20119;-72
2022/09/13 08:44:27;;;;;;;2.00;1.90;;;25.00;77.30;;;;;;5055284;28;20098;-75
2022/09/13 08:47:20;;;;;;;12.82;2.15;;;25.20;77.10;;;;;;5053609;28;20082;-72
2022/09/13 08:49:49;;;;;;;4.40;2.30;;;25.30;75.50;;;;;;5035814;28;20052;-73
2022/09/13 08:52:39;;;;;;;2.85;2.00;;;25.60;74.90;;;;;;5055342;28;20036;-73
2022/09/13 08:55:38;;;;;;;4.47;1.92;;;26.10;73.70;;;;;;5055303;28;20487;-75
2022/09/13 08:58:27;;;;;;;3.05;2.20;;;25.80;71.60;;;;;;5054924;28;20081;-74
2022/09/13 09:01:13;;;;;;;4.82;2.20;;;25.70;71.00;;;;;;5055291;28;20037;-75
2022/09/13 09:03:51;;;;;;;2.95;2.20;;;26.20;70.20;;;;;;5054498;28;20119;-75
2022/09/13 09:06:18;;;;;;;2.67;1.93;;;26.10;69.30;;;;;;5055219;28;20051;-75
2022/09/13 09:08:52;;;;;;;3.72;2.05;;;26.10;70.40;;;;;;5055692;28;20066;-75
2022/09/13 09:11:43;;;;;;;3.22;2.55;;;26.40;69.00;;;;;;5055053;28;20477;-75
2022/09/13 09:14:24;;;;;;;4.82;1.88;;;26.20;68.40;;;;;;5054673;28;20083;-76
2022/09/13 09:16:56;;;;;;;6.03;2.55;;;26.80;66.90;;;;;;5054937;28;20438;-76
2022/09/13 09:19:36;;;;;;;5.03;1.92;;;26.90;66.40;;;;;;5053993;28;20116;-76
2022/09/13 09:22:08;;;;;;;6.10;2.17;;;27.30;65.90;;;;;;5054890;28;20029;-76
2022/09/13 09:24:37;;;;;;;2.88;2.30;;;27.40;64.20;;;;;;5054974;28;20387;-76
2022/09/13 09:27:17;;;;;;;3.08;2.20;;;28.10;64.10;;;;;;5054258;28;20033;-76
2022/09/13 09:29:45;;;;;;;5.35;2.15;;;28.50;62.20;;;;;;5053542;28;20032;-76
2022/09/13 09:32:41;;;;;;;2.95;2.00;;;28.00;61.30;;;;;;5053937;28;20448;-76
2022/09/13 09:35:11;;;;;;;5.50;2.33;;;27.80;60.50;;;;;;5054201;28;20025;-74
2022/09/13 09:37:38;;;;;;;3.30;2.65;;;27.70;60.30;;;;;;5054423;28;20031;-75
2022/09/13 09:40:09;;;;;;;2.58;1.88;;;27.90;60.10;;;;;;5054246;28;20029;-76
2022/09/13 09:42:46;;;;;;;2.55;2.35;;;28.50;59.40;;;;;;5054483;28;20021;-76
2022/09/13 09:45:40;;;;;;;5.38;2.45;;;27.90;59.90;;;;;;5053087;28;20029;-76
2022/09/13 09:48:11;;;;;;;3.20;2.03;;;27.50;61.10;;;;;;5051507;28;20036;-76
2022/09/13 09:50:42;;;;;;;2.22;1.80;;;27.00;61.20;;;;;;5052480;28;20029;-74
2022/09/13 09:53:14;;;;;;;2.13;1.90;;;26.80;62.60;;;;;;5054508;28;20449;-74
2022/09/13 09:55:55;;;;;;;4.63;1.90;;;27.40;63.50;;;;;;5054256;28;20036;-74
2022/09/13 09:58:43;;;;;;;2.38;1.80;;;27.70;61.20;;;;;;5054140;28;20029;-76
2022/09/13 10:01:28;;;;;;;2.15;1.85;;;28.00;60.20;;;;;;5053982;28;20362;-76
2022/09/13 10:04:20;;;;;;;3.85;1.95;;;28.00;60.40;;;;;;5054342;28;20152;-74
2022/09/13 10:06:48;;;;;;;5.03;2.38;;;27.30;61.30;;;;;;5054047;28;20021;-74
2022/09/13 10:09:17;;;;;;;3.15;2.08;;;27.10;61.20;;;;;;5052695;28;20136;-74
2022/09/13 10:11:42;;;;;;;3.88;1.98;;;26.90;62.00;;;;;;5052792;28;20473;-74
2022/09/13 10:14:43;;;;;;;3.78;2.78;;;27.50;61.90;;;;;;5053906;28;20083;-74
2022/09/13 10:17:23;;;;;;;4.72;2.35;;;27.90;61.30;;;;;;5053900;28;20100;-74
2022/09/13 10:20:25;;;;;;;2.97;2.00;;;28.10;60.20;;;;;;5053164;28;20124;-74
2022/09/13 10:23:23;;;;;;;4.13;2.35;;;28.80;59.10;;;;;;5045978;28;20438;-75
2022/09/13 10:26:08;;;;;;;8.27;2.50;;;28.90;58.00;;;;;;5031156;28;20037;-75
2022/09/13 10:28:58;;;;;;;5.32;2.30;;;29.40;58.20;;;;;;5052551;28;20412;-74
2022/09/13 10:31:35;;;;;;;3.25;2.45;;;29.30;57.40;;;;;;5052077;28;20033;-74
2022/09/13 10:34:02;;;;;;;2.97;2.17;;;29.30;56.20;;;;;;5052348;28;20036;-74
2022/09/13 10:36:34;;;;;;;4.20;2.10;;;28.80;57.00;;;;;;5052332;28;20031;-74
2022/09/13 10:39:03;;;;;;;3.78;2.00;;;29.30;56.60;;;;;;5052390;28;20484;-74
2022/09/13 10:41:39;;;;;;;2.53;2.33;;;29.40;56.30;;;;;;5053108;28;20029;-74
2022/09/13 10:44:21;;;;;;;1.80;1.70;;;29.50;55.60;;;;;;5053271;28;20378;-76
2022/09/13 10:46:48;;;;;;;3.47;1.90;;;29.90;55.10;;;;;;5052332;28;20381;-74
2022/09/13 10:49:37;;;;;;;4.25;2.33;;;29.50;54.70;;;;;;5052210;28;20025;-74
2022/09/13 10:52:32;;;;;;;;;;;29.00;56.50;;;;;;5053866;28;20021;-74
2022/09/13 10:55:22;;;;;;;2.22;1.60;;;29.40;54.80;;;;;;5048582;28;19904;-74
2022/09/13 10:57:53;;;;;;;6.10;2.30;;;29.80;53.10;;;;;;5047267;28;20064;-76
2022/09/13 11:00:30;;;;;;;1.42;1.33;;;30.50;53.40;;;;;;5052966;28;20137;-76
2022/09/13 11:03:07;;;;;;;1.60;1.50;;;30.80;51.90;;;;;;5053555;28;20109;-74
2022/09/13 11:05:53;;;;;;;1.77;1.37;;;31.00;49.60;;;;;;5056458;28;20025;-74
2022/09/13 11:08:37;;;;;;;1.58;1.42;;;30.90;49.50;;;;;;5057330;28;20028;-74
2022/09/13 11:11:30;;;;;;;4.03;1.40;;;29.80;50.80;;;;;;5057459;28;20025;-74
2022/09/13 11:14:12;;;;;;;3.55;1.25;;;28.80;52.20;;;;;;5056007;28;20457;-74
2022/09/13 11:16:47;;;;;;;2.30;1.45;;;29.00;52.00;;;;;;5057586;28;20083;-75
2022/09/13 11:19:50;;;;;;;1.83;1.25;;;29.90;52.00;;;;;;5057138;28;20021;-75
2022/09/13 11:22:33;;;;;;;1.52;1.42;;;30.40;49.30;;;;;;5056706;28;20419;-74
2022/09/13 11:25:22;;;;;;;1.17;1.10;;;30.80;49.30;;;;;;5057072;28;20110;-77
2022/09/13 11:27:53;;;;;;;3.35;1.48;;;31.40;47.40;;;;;;5055833;28;20025;-75
2022/09/13 11:30:24;;;;;;;1.27;1.02;;;31.40;47.20;;;;;;5055482;28;20037;-76
2022/09/13 11:33:13;;;;;;;1.95;1.17;;;32.20;46.70;;;;;;5057098;28;20029;-76
2022/09/13 11:35:48;;;;;;;1.83;1.23;;;32.40;46.00;;;;;;5055533;28;20059;-77
2022/09/13 11:38:48;;;;;;;1.45;1.00;;;32.80;45.00;;;;;;5056456;28;20029;-77
2022/09/13 11:41:28;;;;;;;1.83;1.00;;;33.00;43.00;;;;;;5056796;28;20033;-77
2022/09/13 11:43:55;;;;;;;1.05;0.90;;;33.00;42.70;;;;;;5059703;28;20055;-77
2022/09/13 11:46:38;;;;;;;4.90;1.13;;;33.80;40.40;;;;;;5059861;28;20060;-77
2022/09/13 11:49:25;;;;;;;1.10;1.10;;;33.70;40.40;;;;;;5059826;28;20111;-77
2022/09/13 11:52:01;;;;;;;1.10;1.00;;;33.80;37.80;;;;;;5056912;28;20064;-77
2022/09/13 11:55:15;;;;;;;1.30;0.80;;;33.20;38.60;;;;;;5056215;28;20025;-77
2022/09/13 11:58:12;;;;;;;1.35;0.68;;;33.10;38.90;;;;;;5047093;28;20045;-76
2022/09/13 12:00:42;;;;;;;2.28;0.90;;;32.40;38.00;;;;;;5054082;28;20048;-77
2022/09/13 12:03:16;;;;;;;0.93;0.70;;;31.70;38.40;;;;;;5056277;28;20099;-76
2022/09/13 12:05:49;;;;;;;5.30;0.90;;;31.90;39.50;;;;;;5056204;28;20025;-77
2022/09/13 12:08:14;;;;;;;0.80;0.80;;;31.80;38.70;;;;;;5055938;28;20087;-77
2022/09/13 12:10:51;;;;;;;0.80;0.80;;;31.40;39.30;;;;;;5055870;28;20488;-76
2022/09/13 12:13:24;;;;;;;0.55;0.55;;;32.00;39.20;;;;;;5056150;28;20021;-77
2022/09/13 12:16:04;;;;;;;0.60;0.60;;;32.00;37.80;;;;;;5054535;28;20025;-75
2022/09/13 12:18:52;;;;;;;0.70;0.70;;;32.10;36.60;;;;;;5055297;28;20115;-76
2022/09/13 12:21:24;;;;;;;1.88;0.77;;;32.40;37.20;;;;;;5055628;28;20061;-77
2022/09/13 12:23:59;;;;;;;0.93;0.80;;;32.50;37.70;;;;;;5056111;28;20051;-76
2022/09/13 12:26:34;;;;;;;0.75;0.75;;;32.30;37.90;;;;;;5055514;28;20048;-77
2022/09/13 12:29:36;;;;;;;0.80;0.80;;;32.60;39.00;;;;;;5055840;28;20021;-78
2022/09/13 12:32:04;;;;;;;0.68;0.68;;;33.10;37.30;;;;;;5054846;28;20032;-78
2022/09/13 12:34:47;;;;;;;0.70;0.70;;;33.50;36.90;;;;;;5055814;28;20123;-61
2022/09/13 12:37:28;;;;;;;0.47;0.40;;;32.90;39.50;;;;;;5055545;28;20040;-61
2022/09/13 12:39:59;;;;;;;0.80;0.80;;;32.40;39.00;;;;;;5055920;28;20040;-61
2022/09/13 12:42:44;;;;;;;1.80;0.60;;;32.80;39.40;;;;;;5055498;28;20473;-61
2022/09/13 12:45:27;;;;;;;1.40;0.70;;;32.60;41.20;;;;;;5055617;28;20431;-61
2022/09/13 12:48:40;;;;;;;2.75;1.00;;;32.30;39.50;;;;;;5055591;28;20082;-60
2022/09/13 12:51:25;;;;;;;0.90;0.70;;;31.50;39.40;;;;;;5013424;28;20041;-61
2022/09/13 12:54:09;;;;;;;4.22;0.80;;;30.70;40.10;;;;;;5055390;28;20031;-61
2022/09/13 12:56:48;;;;;;;0.70;0.70;;;30.20;41.60;;;;;;5055057;28;20028;-61
2022/09/13 12:59:27;;;;;;;;;;;29.70;42.60;;;;;;5055988;28;20190;-62
2022/09/13 13:01:53;;;;;;;1.15;0.70;;;29.70;42.60;;;;;;5055740;28;19913;-61
2022/09/13 13:04:25;;;;;;;2.38;1.10;;;29.90;42.80;;;;;;5055294;28;20049;-61
2022/09/13 13:07:17;;;;;;;1.65;0.50;;;30.50;43.50;;;;;;5055341;28;20025;-61
2022/09/13 13:09:46;;;;;;;0.75;0.50;;;30.20;43.10;;;;;;5055125;28;20027;-62
2022/09/13 13:12:33;;;;;;;2.17;0.75;;;30.10;42.20;;;;;;5055154;28;20032;-61
2022/09/13 13:15:01;;;;;;;6.07;0.80;;;29.90;42.70;;;;;;5055005;28;20366;-61
2022/09/13 13:17:41;;;;;;;0.73;0.73;;;29.90;42.80;;;;;;5055436;28;20454;-61
2022/09/13 13:20:39;;;;;;;1.00;0.98;;;29.90;42.40;;;;;;5056398;28;20283;-63
2022/09/13 13:23:22;;;;;;;0.68;0.68;;;30.80;43.20;;;;;;5062720;28;20025;-62